This is the latest recevied weather packets stored in our database for station/object K7JGC-9. If no packets are shown the sender has not sent any weather packets the latest 10 day(s).
| Time | Temp. | Humidity | Pressure | Rain* | Wind** | Luminosity | Snow |
|---|---|---|---|---|---|---|---|
| 1777567297 | 13.33° C | 98% | 1019.8 hPa | 0 mm | - | 92 W/m² | - |
| 1777565497 | 11.67° C | 98% | 1019.7 hPa | 0 mm | - | 68 W/m² | - |
| 1777563696 | 10.56° C | 98% | 1020 hPa | 0 mm | - | 37 W/m² | - |
| 1777561894 | 10° C | 98% | 1020.2 hPa | 0 mm | - | 24 W/m² | - |
| 1777560089 | 9.44° C | 98% | 1020.3 hPa | 0 mm | - | 18 W/m² | - |
| 1777558288 | 8.89° C | 97% | 1020.1 hPa | 0 mm | - | 17 W/m² | - |
| 1777556485 | 8.33° C | 97% | 1020.1 hPa | 0 mm | - | 12 W/m² | - |
| 1777554684 | 8.33° C | 97% | 1019.8 hPa | 0 mm | - | 3 W/m² | - |
| 1777552880 | 8.33° C | 97% | 1019.9 hPa | 0 mm | - | 0 W/m² | - |
| 1777551077 | 8.33° C | 96% | 1020.1 hPa | 0 mm | - | 0 W/m² | - |
| 1777549272 | 8.89° C | 96% | 1020.3 hPa | 0 mm | - | 0 W/m² | - |
| 1777547469 | 8.89° C | 95% | 1020.5 hPa | 0 mm | - | 0 W/m² | - |
| 1777545669 | 8.89° C | 96% | 1020.4 hPa | 0 mm | - | 0 W/m² | - |
| 1777543867 | 9.44° C | 95% | 1020.3 hPa | 0 mm | - | 0 W/m² | - |
| 1777542063 | 9.44° C | 94% | 1020.2 hPa | 0 mm | - | 0 W/m² | - |
| 1777540261 | 10° C | 95% | 1020.5 hPa | 0 mm | - | 0 W/m² | - |
| 1777538460 | 10° C | 95% | 1020.3 hPa | 0 mm | - | 0 W/m² | - |
| 1777536655 | 10.56° C | 95% | 1020.6 hPa | 0 mm | - | 0 W/m² | - |
| 1777534852 | 10.56° C | 94% | 1020.3 hPa | 0 mm | - | 0 W/m² | - |
| 1777533050 | 11.11° C | 93% | 1020.5 hPa | 0 mm | - | 0 W/m² | - |
| 1777531248 | 11.67° C | 94% | 1020.4 hPa | 0 mm | - | 0 W/m² | - |
| 1777529447 | 11.67° C | 95% | 1020.5 hPa | 0 mm | - | 0 W/m² | - |
| 1777527645 | 12.22° C | 94% | 1020.3 hPa | 0 mm | - | 0 W/m² | - |
| 1777525842 | 12.78° C | 92% | 1020.4 hPa | 0 mm | - | 0 W/m² | - |
| 1777524041 | 13.33° C | 92% | 1020.5 hPa | 0 mm | - | 0 W/m² | - |
* Rain latest hour (hover to see other rain measurements)
** Current wind speed in m/s (hover to see current wind gust speed)